createdAt,value
2019-04-20T00:01:26.221Z,13.30
2019-04-20T00:04:47.209Z,13.30
2019-04-20T00:08:19.210Z,13.20
2019-04-20T00:11:48.404Z,13.10
2019-04-20T00:15:02.989Z,13.00
2019-04-20T00:18:38.195Z,12.90
2019-04-20T00:22:03.025Z,12.80
2019-04-20T00:25:55.466Z,12.60
2019-04-20T00:29:32.212Z,12.50
2019-04-20T00:32:49.969Z,12.40
2019-04-20T00:36:01.151Z,12.30
2019-04-20T00:39:25.883Z,12.20
2019-04-20T00:42:55.168Z,12.20
2019-04-20T00:46:26.425Z,12.10
2019-04-20T00:49:55.107Z,12.10
2019-04-20T00:53:19.539Z,12.00
2019-04-20T00:56:33.006Z,11.90
2019-04-20T01:00:17.689Z,11.80
2019-04-20T01:03:33.819Z,11.70
2019-04-20T01:07:11.392Z,11.70
2019-04-20T01:10:23.654Z,11.60
2019-04-20T01:13:52.713Z,11.50
2019-04-20T01:17:13.428Z,11.50
2019-04-20T01:20:36.600Z,11.50
2019-04-20T01:24:03.554Z,11.40
2019-04-20T01:27:38.741Z,11.50
2019-04-20T01:31:06.193Z,11.40
2019-04-20T01:34:32.566Z,11.50
2019-04-20T01:38:01.373Z,11.50
2019-04-20T01:41:07.464Z,11.50
2019-04-20T01:44:36.787Z,11.50
2019-04-20T01:47:59.197Z,11.40
2019-04-20T01:51:29.733Z,11.40
2019-04-20T01:55:24.844Z,11.30
2019-04-20T01:59:10.617Z,11.20
2019-04-20T02:02:48.853Z,11.20
2019-04-20T02:06:13.043Z,11.10
2019-04-20T02:09:37.891Z,11.10
2019-04-20T02:13:01.702Z,11.10
2019-04-20T02:16:32.750Z,11.00
2019-04-20T02:20:23.343Z,11.00
2019-04-20T02:23:56.206Z,10.90
2019-04-20T02:27:15.014Z,11.00
2019-04-20T02:31:24.319Z,10.90
2019-04-20T02:35:27.321Z,10.90
2019-04-20T02:39:43.242Z,10.80
2019-04-20T02:43:05.505Z,10.70
2019-04-20T02:46:24.538Z,10.70
2019-04-20T02:50:05.179Z,10.70
2019-04-20T02:54:06.326Z,10.60
2019-04-20T02:58:10.811Z,10.60
2019-04-20T03:01:40.697Z,10.50
2019-04-20T03:05:20.685Z,10.50
2019-04-20T03:09:36.796Z,10.40
2019-04-20T03:13:18.546Z,10.40
2019-04-20T03:17:01.407Z,10.30
2019-04-20T03:21:07.998Z,10.20
2019-04-20T03:25:28.506Z,10.10
2019-04-20T03:29:03.936Z,10.10
2019-04-20T03:33:06.936Z,10.00
2019-04-20T03:36:27.839Z,10.00
2019-04-20T03:39:52.972Z,9.90
2019-04-20T03:43:05.636Z,10.00
2019-04-20T03:46:57.951Z,9.90
2019-04-20T03:50:43.570Z,9.90
2019-04-20T03:54:19.888Z,10.00
2019-04-20T03:58:08.812Z,10.00
2019-04-20T04:02:25.139Z,9.90
2019-04-20T04:05:32.448Z,9.90
2019-04-20T04:08:55.013Z,9.80
2019-04-20T04:12:59.122Z,9.70
2019-04-20T04:16:27.117Z,9.70
2019-04-20T04:20:12.874Z,9.60
2019-04-20T04:23:48.923Z,9.60
2019-04-20T04:27:38.701Z,9.60
2019-04-20T04:30:59.927Z,9.50
2019-04-20T04:34:46.883Z,9.50
2019-04-20T04:38:06.940Z,9.50
2019-04-20T04:41:39.901Z,9.50
2019-04-20T04:45:00.822Z,9.50
2019-04-20T04:48:22.391Z,9.50
2019-04-20T04:52:02.236Z,9.60
2019-04-20T04:55:31.159Z,9.60
2019-04-20T04:58:44.959Z,9.60
2019-04-20T05:02:07.990Z,9.60
2019-04-20T05:06:13.361Z,9.70
2019-04-20T05:09:23.832Z,9.70
2019-04-20T05:12:48.166Z,9.80
2019-04-20T05:16:54.614Z,9.90
2019-04-20T05:20:16.083Z,9.90
2019-04-20T05:23:43.695Z,10.00
2019-04-20T05:27:30.170Z,10.10
2019-04-20T05:30:45.185Z,10.10
2019-04-20T05:34:33.264Z,10.20
2019-04-20T05:38:02.820Z,10.20
2019-04-20T05:41:17.387Z,10.30
2019-04-20T05:44:46.123Z,10.40
2019-04-20T05:48:16.420Z,10.50
2019-04-20T05:51:44.624Z,10.60
2019-04-20T05:55:19.501Z,10.70
2019-04-20T05:58:32.948Z,10.80
2019-04-20T06:02:07.685Z,11.00
2019-04-20T06:05:45.937Z,11.10
2019-04-20T06:09:39.651Z,11.20
2019-04-20T06:13:29.995Z,11.40
2019-04-20T06:17:11.395Z,11.50
2019-04-20T06:21:00.817Z,11.70
2019-04-20T06:24:35.893Z,11.80
2019-04-20T06:27:54.825Z,11.90
2019-04-20T06:31:35.586Z,12.10
2019-04-20T06:35:53.628Z,12.20
2019-04-20T06:39:37.025Z,12.40
2019-04-20T06:43:18.061Z,12.60
2019-04-20T06:47:02.849Z,12.80
2019-04-20T06:50:39.061Z,13.00
2019-04-20T06:54:57.779Z,13.20
2019-04-20T06:58:40.624Z,13.40
2019-04-20T07:02:18.690Z,13.50
2019-04-20T07:06:20.953Z,13.70
2019-04-20T07:09:47.374Z,13.90
2019-04-20T07:12:55.617Z,14.00
2019-04-20T07:16:53.345Z,14.20
2019-04-20T07:21:05.355Z,14.30
2019-04-20T07:24:47.878Z,14.50
2019-04-20T07:28:12.956Z,14.70
2019-04-20T07:32:10.768Z,14.80
2019-04-20T07:35:56.016Z,15.00
2019-04-20T07:39:48.659Z,15.30
2019-04-20T07:43:16.466Z,15.40
2019-04-20T07:47:13.810Z,15.50
2019-04-20T07:50:33.399Z,15.60
2019-04-20T07:54:56.953Z,15.70
2019-04-20T07:58:21.791Z,15.90
2019-04-20T08:02:17.239Z,16.00
2019-04-20T08:05:45.869Z,16.10
2019-04-20T08:09:28.820Z,16.30
2019-04-20T08:20:57.656Z,16.80
2019-04-20T08:24:21.491Z,16.90
2019-04-20T08:28:25.243Z,17.10
2019-04-20T08:32:23.112Z,17.20
2019-04-20T08:36:19.981Z,17.30
2019-04-20T08:43:45.132Z,17.60
2019-04-20T08:47:13.208Z,17.70
2019-04-20T08:50:22.307Z,17.90
2019-04-20T08:53:51.790Z,18.10
2019-04-20T08:57:15.776Z,18.30
2019-04-20T09:00:48.558Z,18.50
2019-04-20T09:04:52.887Z,18.70
2019-04-20T09:08:37.957Z,18.90
2019-04-20T09:12:11.544Z,19.10
2019-04-20T09:16:13.031Z,19.30
2019-04-20T09:20:27.051Z,19.50
2019-04-20T09:24:38.204Z,19.80
2019-04-20T09:28:14.604Z,20.20
2019-04-20T09:31:47.225Z,20.60
2019-04-20T09:35:48.649Z,20.80
2019-04-20T09:39:30.653Z,21.10
2019-04-20T09:43:25.861Z,21.40
2019-04-20T09:47:10.528Z,21.90
2019-04-20T09:50:56.456Z,22.30
2019-04-20T09:54:40.370Z,22.70
2019-04-20T09:58:01.514Z,23.30
2019-04-20T10:01:41.989Z,25.40
2019-04-20T10:05:43.533Z,27.30
2019-04-20T10:09:07.514Z,28.70
2019-04-20T10:12:52.213Z,30.10
2019-04-20T10:16:55.791Z,31.00
2019-04-20T10:20:34.743Z,32.20
2019-04-20T10:23:56.610Z,32.30
2019-04-20T10:27:32.757Z,33.30
2019-04-20T10:31:30.758Z,34.20
2019-04-20T10:34:59.888Z,34.20
2019-04-20T10:38:35.920Z,34.90
2019-04-20T10:42:20.437Z,34.40
2019-04-20T10:46:02.724Z,33.60
2019-04-20T10:49:49.359Z,33.30
2019-04-20T10:53:22.112Z,33.30
2019-04-20T10:57:01.817Z,32.70
2019-04-20T11:01:25.167Z,32.50
2019-04-20T11:04:56.974Z,32.80
2019-04-20T11:08:30.604Z,32.60
2019-04-20T11:11:54.457Z,33.60
2019-04-20T11:15:42.134Z,35.30
2019-04-20T11:19:25.704Z,36.50
2019-04-20T11:23:08.545Z,37.90
2019-04-20T11:26:38.057Z,38.40
2019-04-20T11:30:02.576Z,39.00
2019-04-20T11:33:52.254Z,39.70
2019-04-20T11:37:17.455Z,40.90
2019-04-20T11:40:42.286Z,41.70
2019-04-20T11:44:27.864Z,41.60
2019-04-20T11:47:55.649Z,41.70
2019-04-20T11:51:21.515Z,41.70
2019-04-20T11:55:04.455Z,42.00
2019-04-20T11:58:44.883Z,41.70
2019-04-20T12:02:54.552Z,42.20
2019-04-20T12:06:39.115Z,42.80
2019-04-20T12:10:15.809Z,43.60
2019-04-20T12:14:00.566Z,43.70
2019-04-20T12:17:31.988Z,43.30
2019-04-20T12:21:18.941Z,43.70
2019-04-20T12:24:42.352Z,43.50
2019-04-20T12:28:27.428Z,43.10
2019-04-20T12:32:08.584Z,43.50
2019-04-20T12:35:40.351Z,44.20
2019-04-20T12:39:08.893Z,45.40
2019-04-20T12:42:32.953Z,45.60
2019-04-20T12:46:21.405Z,45.40
2019-04-20T12:49:43.609Z,44.60
2019-04-20T12:53:28.632Z,45.40
2019-04-20T12:57:10.875Z,45.10
2019-04-20T13:00:49.618Z,45.60
2019-04-20T13:05:11.826Z,45.70
2019-04-20T13:08:42.216Z,47.00
2019-04-20T13:12:24.153Z,46.00
2019-04-20T13:16:08.041Z,46.10
2019-04-20T13:19:51.240Z,45.90
2019-04-20T13:23:39.129Z,45.90
2019-04-20T13:27:04.625Z,46.40
2019-04-20T13:30:32.230Z,46.10
2019-04-20T13:34:03.834Z,46.70
2019-04-20T13:37:47.230Z,46.80
2019-04-20T13:41:11.586Z,47.70
2019-04-20T13:44:43.239Z,48.40
2019-04-20T13:48:26.742Z,48.30
2019-04-20T13:51:59.057Z,47.70
2019-04-20T13:55:50.206Z,47.70
2019-04-20T13:59:37.805Z,48.40
2019-04-20T14:03:04.916Z,47.90
2019-04-20T14:06:35.271Z,48.10
2019-04-20T14:10:19.549Z,47.90
2019-04-20T14:13:51.890Z,47.50
2019-04-20T14:17:16.993Z,47.90
2019-04-20T14:20:44.640Z,47.80
2019-04-20T14:24:24.803Z,48.00
2019-04-20T14:28:02.755Z,48.00
2019-04-20T14:31:28.255Z,47.80
2019-04-20T14:35:29.202Z,48.30
2019-04-20T14:38:54.075Z,48.10
2019-04-20T14:42:44.849Z,47.70
2019-04-20T14:46:03.049Z,46.60
2019-04-20T14:49:26.252Z,47.10
2019-04-20T14:52:49.784Z,47.50
2019-04-20T14:56:13.609Z,47.10
2019-04-20T14:59:47.802Z,47.40
2019-04-20T15:03:35.390Z,47.10
2019-04-20T15:07:00.165Z,47.40
2019-04-20T15:10:24.755Z,47.00
2019-04-20T15:13:48.929Z,47.40
2019-04-20T15:17:17.133Z,46.90
2019-04-20T15:20:43.725Z,46.80
2019-04-20T15:24:06.917Z,47.10
2019-04-20T15:27:30.365Z,47.30
2019-04-20T15:30:54.179Z,46.70
2019-04-20T15:34:17.491Z,46.70
2019-04-20T15:37:42.386Z,46.40
2019-04-20T15:41:08.594Z,46.60
2019-04-20T15:44:31.443Z,46.70
2019-04-20T15:47:56.322Z,47.10
2019-04-20T15:51:19.577Z,47.20
2019-04-20T15:54:43.419Z,45.60
2019-04-20T15:58:08.321Z,45.50
2019-04-20T16:01:36.589Z,45.30
2019-04-20T16:05:22.284Z,45.20
2019-04-20T16:08:48.350Z,45.00
2019-04-20T16:12:12.953Z,44.30
2019-04-20T16:15:36.203Z,44.30
2019-04-20T16:19:04.049Z,43.90
2019-04-20T16:22:26.255Z,43.90
2019-04-20T16:25:55.471Z,42.00
2019-04-20T16:29:19.836Z,39.00
2019-04-20T16:32:44.880Z,36.80
2019-04-20T16:36:08.362Z,35.40
2019-04-20T16:39:32.299Z,33.80
2019-04-20T16:42:56.350Z,32.70
2019-04-20T16:46:22.520Z,32.30
2019-04-20T16:49:44.722Z,31.80
2019-04-20T16:53:08.900Z,31.40
2019-04-20T16:56:32.954Z,30.90
2019-04-20T16:59:59.132Z,30.60
2019-04-20T17:03:27.888Z,30.70
2019-04-20T17:07:10.330Z,30.10
2019-04-20T17:10:34.834Z,29.40
2019-04-20T17:14:01.613Z,28.60
2019-04-20T17:17:23.750Z,28.00
2019-04-20T17:20:46.903Z,27.60
2019-04-20T17:24:11.171Z,27.10
2019-04-20T17:27:57.284Z,26.60
2019-04-20T17:31:38.098Z,26.30
2019-04-20T17:35:15.815Z,25.90
2019-04-20T17:38:34.670Z,25.60
2019-04-20T17:42:08.599Z,25.40
2019-04-20T17:45:28.550Z,25.10
2019-04-20T17:48:59.133Z,25.00
2019-04-20T17:52:28.403Z,24.70
2019-04-20T17:55:49.367Z,24.60
2019-04-20T17:59:12.489Z,24.40
2019-04-20T18:02:58.610Z,24.20
2019-04-20T18:06:24.166Z,24.00
2019-04-20T18:09:54.726Z,23.80
2019-04-20T18:12:57.078Z,23.60
2019-04-20T18:16:46.532Z,23.40
2019-04-20T18:19:54.594Z,23.20
2019-04-20T18:23:26.987Z,23.10
2019-04-20T18:27:05.574Z,22.80
2019-04-20T18:30:31.068Z,22.50
2019-04-20T18:33:44.367Z,22.30
2019-04-20T18:37:12.897Z,22.10
2019-04-20T18:40:41.771Z,22.00
2019-04-20T18:43:59.173Z,21.90
2019-04-20T18:47:40.578Z,21.60
2019-04-20T18:50:50.319Z,21.50
2019-04-20T18:54:18.835Z,21.40
2019-04-20T18:57:39.813Z,21.30
2019-04-20T19:01:03.217Z,21.20
2019-04-20T19:04:27.861Z,21.10
2019-04-20T19:07:59.277Z,21.00
2019-04-20T19:11:19.773Z,20.90
2019-04-20T19:15:30.476Z,20.70
2019-04-20T19:19:04.181Z,20.60
2019-04-20T19:22:17.509Z,20.40
2019-04-20T19:25:42.484Z,20.40
2019-04-20T19:29:15.647Z,20.30
2019-04-20T19:32:45.055Z,20.20
2019-04-20T19:36:12.035Z,20.10
2019-04-20T19:39:39.732Z,20.00
2019-04-20T19:43:01.228Z,19.80
2019-04-20T19:49:45.077Z,19.80
2019-04-20T19:53:26.542Z,19.70
2019-04-20T19:56:44.324Z,19.60
2019-04-20T19:59:55.785Z,19.50
2019-04-20T20:03:17.566Z,19.40
2019-04-20T20:06:48.893Z,19.30
2019-04-20T20:10:10.580Z,19.20
2019-04-20T20:13:41.992Z,19.10
2019-04-20T20:17:13.776Z,19.10
2019-04-20T20:20:42.936Z,19.00
2019-04-20T20:23:50.062Z,18.90
2019-04-20T20:27:24.204Z,18.80
2019-04-20T20:30:53.700Z,18.80
2019-04-20T20:34:12.887Z,18.80
2019-04-20T20:37:33.770Z,18.70
2019-04-20T20:41:05.726Z,18.60
2019-04-20T20:44:35.457Z,18.50
2019-04-20T20:48:06.202Z,18.50
2019-04-20T20:51:34.609Z,18.40
2019-04-20T20:54:48.361Z,18.40
2019-04-20T20:58:08.592Z,18.30
2019-04-20T21:01:33.092Z,18.30
2019-04-20T21:04:51.636Z,18.30
2019-04-20T21:08:15.642Z,18.20
2019-04-20T21:11:40.086Z,18.10
2019-04-20T21:15:08.224Z,18.00
2019-04-20T21:18:47.500Z,17.90
2019-04-20T21:22:03.026Z,17.90
2019-04-20T21:25:34.555Z,17.70
2019-04-20T21:28:55.511Z,17.70
2019-04-20T21:32:21.376Z,17.60
2019-04-20T21:35:48.330Z,17.50
2019-04-20T21:39:16.397Z,17.40
2019-04-20T21:42:42.472Z,17.30
2019-04-20T21:46:03.741Z,17.30
2019-04-20T21:49:38.757Z,17.20
2019-04-20T21:52:53.388Z,17.10
2019-04-20T21:56:15.667Z,17.10
2019-04-20T21:59:44.671Z,17.00
2019-04-20T22:03:09.853Z,16.90
2019-04-20T22:06:32.038Z,16.90
2019-04-20T22:09:56.791Z,16.80
2019-04-20T22:13:26.779Z,16.70
2019-04-20T22:16:50.170Z,16.60
2019-04-20T22:20:20.167Z,16.50
2019-04-20T22:23:54.411Z,16.50
2019-04-20T22:27:09.887Z,16.40
2019-04-20T22:30:28.234Z,16.30
2019-04-20T22:33:52.361Z,16.30
2019-04-20T22:37:21.996Z,16.20
2019-04-20T22:40:41.562Z,16.10
2019-04-20T22:44:12.175Z,16.10
2019-04-20T22:47:32.698Z,16.00
2019-04-20T22:51:16.474Z,15.90
2019-04-20T22:54:36.437Z,15.80
2019-04-20T22:57:57.430Z,15.80
2019-04-20T23:01:20.358Z,15.80
2019-04-20T23:04:37.106Z,15.70
2019-04-20T23:08:00.406Z,15.70
2019-04-20T23:11:28.376Z,15.60
2019-04-20T23:14:49.904Z,15.50
2019-04-20T23:18:13.961Z,15.50
2019-04-20T23:21:42.113Z,15.40
2019-04-20T23:25:03.151Z,15.40
2019-04-20T23:28:26.880Z,15.40
2019-04-20T23:31:55.652Z,15.30
2019-04-20T23:35:18.513Z,15.30
2019-04-20T23:38:44.200Z,15.20
2019-04-20T23:42:08.882Z,15.10
2019-04-20T23:45:52.353Z,15.00
2019-04-20T23:49:44.252Z,14.90
2019-04-20T23:53:18.201Z,14.80
2019-04-20T23:56:22.503Z,14.70
2019-04-20T23:59:46.975Z,14.70
